sensor_id;sensor_type;location;lat;lon;timestamp;P1;durP1;ratioP1;P2;durP2;ratioP2
65328;SDS011;51941;52.210;5.158;2022-08-16T00:01:55;13.57;;;10.43;;
65328;SDS011;51941;52.210;5.158;2022-08-16T00:04:22;11.48;;;9.60;;
65328;SDS011;51941;52.210;5.158;2022-08-16T00:06:50;10.75;;;8.98;;
65328;SDS011;51941;52.210;5.158;2022-08-16T00:09:17;12.50;;;9.60;;
65328;SDS011;51941;52.210;5.158;2022-08-16T00:11:44;14.05;;;11.93;;
65328;SDS011;51941;52.210;5.158;2022-08-16T00:14:12;14.15;;;12.35;;
65328;SDS011;51941;52.210;5.158;2022-08-16T00:16:42;14.32;;;11.85;;
65328;SDS011;51941;52.210;5.158;2022-08-16T00:19:10;12.10;;;10.80;;
65328;SDS011;51941;52.210;5.158;2022-08-16T00:21:38;13.83;;;11.43;;
65328;SDS011;51941;52.210;5.158;2022-08-16T00:24:06;12.18;;;10.27;;
65328;SDS011;51941;52.210;5.158;2022-08-16T00:26:33;13.23;;;11.82;;
65328;SDS011;51941;52.210;5.158;2022-08-16T00:29:00;12.73;;;11.10;;
65328;SDS011;51941;52.210;5.158;2022-08-16T00:31:28;11.63;;;9.90;;
65328;SDS011;51941;52.210;5.158;2022-08-16T00:36:23;9.75;;;8.57;;
65328;SDS011;51941;52.210;5.158;2022-08-16T00:38:50;11.02;;;9.40;;
65328;SDS011;51941;52.210;5.158;2022-08-16T00:41:18;13.48;;;10.77;;
65328;SDS011;51941;52.210;5.158;2022-08-16T00:43:45;13.00;;;11.13;;
65328;SDS011;51941;52.210;5.158;2022-08-16T00:46:14;12.23;;;10.23;;
65328;SDS011;51941;52.210;5.158;2022-08-16T00:48:46;13.52;;;10.70;;
65328;SDS011;51941;52.210;5.158;2022-08-16T00:51:15;16.77;;;12.10;;
65328;SDS011;51941;52.210;5.158;2022-08-16T00:56:12;10.90;;;9.73;;
65328;SDS011;51941;52.210;5.158;2022-08-16T00:58:44;10.48;;;9.38;;
65328;SDS011;51941;52.210;5.158;2022-08-16T01:01:13;13.15;;;10.77;;
65328;SDS011;51941;52.210;5.158;2022-08-16T01:03:43;12.63;;;11.02;;
65328;SDS011;51941;52.210;5.158;2022-08-16T01:06:13;11.70;;;10.43;;
65328;SDS011;51941;52.210;5.158;2022-08-16T01:08:41;13.20;;;10.27;;
65328;SDS011;51941;52.210;5.158;2022-08-16T01:11:11;10.82;;;8.85;;
65328;SDS011;51941;52.210;5.158;2022-08-16T01:13:39;11.82;;;9.88;;
65328;SDS011;51941;52.210;5.158;2022-08-16T01:16:08;11.40;;;9.75;;
65328;SDS011;51941;52.210;5.158;2022-08-16T01:18:40;15.98;;;11.32;;
65328;SDS011;51941;52.210;5.158;2022-08-16T01:21:20;12.88;;;10.70;;
65328;SDS011;51941;52.210;5.158;2022-08-16T01:24:02;11.48;;;10.27;;
65328;SDS011;51941;52.210;5.158;2022-08-16T01:26:36;14.00;;;11.63;;
65328;SDS011;51941;52.210;5.158;2022-08-16T01:29:06;11.30;;;10.13;;
65328;SDS011;51941;52.210;5.158;2022-08-16T01:31:36;14.52;;;11.02;;
65328;SDS011;51941;52.210;5.158;2022-08-16T01:34:03;12.77;;;11.25;;
65328;SDS011;51941;52.210;5.158;2022-08-16T01:36:30;15.77;;;11.70;;
65328;SDS011;51941;52.210;5.158;2022-08-16T01:38:58;15.05;;;11.15;;
65328;SDS011;51941;52.210;5.158;2022-08-16T01:41:28;14.98;;;11.57;;
65328;SDS011;51941;52.210;5.158;2022-08-16T01:43:57;14.70;;;11.63;;
65328;SDS011;51941;52.210;5.158;2022-08-16T01:46:26;13.80;;;10.88;;
65328;SDS011;51941;52.210;5.158;2022-08-16T01:48:59;15.57;;;13.73;;
65328;SDS011;51941;52.210;5.158;2022-08-16T01:51:27;16.88;;;13.80;;
65328;SDS011;51941;52.210;5.158;2022-08-16T01:53:56;14.38;;;11.23;;
65328;SDS011;51941;52.210;5.158;2022-08-16T01:56:27;15.25;;;12.48;;
65328;SDS011;51941;52.210;5.158;2022-08-16T01:58:57;16.05;;;12.65;;
65328;SDS011;51941;52.210;5.158;2022-08-16T02:01:26;16.73;;;12.73;;
65328;SDS011;51941;52.210;5.158;2022-08-16T02:03:54;18.88;;;13.88;;
65328;SDS011;51941;52.210;5.158;2022-08-16T02:06:22;17.40;;;13.80;;
65328;SDS011;51941;52.210;5.158;2022-08-16T02:08:51;16.38;;;13.75;;
65328;SDS011;51941;52.210;5.158;2022-08-16T02:11:20;14.63;;;12.52;;
65328;SDS011;51941;52.210;5.158;2022-08-16T02:13:49;13.68;;;12.07;;
65328;SDS011;51941;52.210;5.158;2022-08-16T02:16:17;16.67;;;11.93;;
65328;SDS011;51941;52.210;5.158;2022-08-16T02:18:46;16.10;;;13.07;;
65328;SDS011;51941;52.210;5.158;2022-08-16T02:21:13;16.42;;;12.23;;
65328;SDS011;51941;52.210;5.158;2022-08-16T02:23:42;16.27;;;12.63;;
65328;SDS011;51941;52.210;5.158;2022-08-16T02:26:08;18.23;;;12.80;;
65328;SDS011;51941;52.210;5.158;2022-08-16T02:28:35;14.93;;;12.55;;
65328;SDS011;51941;52.210;5.158;2022-08-16T02:31:06;17.30;;;13.88;;
65328;SDS011;51941;52.210;5.158;2022-08-16T02:33:35;18.98;;;13.77;;
65328;SDS011;51941;52.210;5.158;2022-08-16T02:36:04;16.27;;;13.35;;
65328;SDS011;51941;52.210;5.158;2022-08-16T02:38:32;16.40;;;13.55;;
65328;SDS011;51941;52.210;5.158;2022-08-16T02:41:00;18.00;;;13.65;;
65328;SDS011;51941;52.210;5.158;2022-08-16T02:43:29;14.85;;;12.82;;
65328;SDS011;51941;52.210;5.158;2022-08-16T02:45:58;16.02;;;12.60;;
65328;SDS011;51941;52.210;5.158;2022-08-16T02:50:58;14.55;;;11.95;;
65328;SDS011;51941;52.210;5.158;2022-08-16T02:53:25;16.30;;;12.90;;
65328;SDS011;51941;52.210;5.158;2022-08-16T02:55:52;16.77;;;12.90;;
65328;SDS011;51941;52.210;5.158;2022-08-16T02:58:20;17.50;;;13.55;;
65328;SDS011;51941;52.210;5.158;2022-08-16T03:00:48;14.73;;;12.40;;
65328;SDS011;51941;52.210;5.158;2022-08-16T03:03:15;12.93;;;11.15;;
65328;SDS011;51941;52.210;5.158;2022-08-16T03:05:44;13.48;;;11.00;;
65328;SDS011;51941;52.210;5.158;2022-08-16T03:08:12;14.60;;;12.60;;
65328;SDS011;51941;52.210;5.158;2022-08-16T03:10:41;15.95;;;13.85;;
65328;SDS011;51941;52.210;5.158;2022-08-16T03:13:08;19.38;;;13.75;;
65328;SDS011;51941;52.210;5.158;2022-08-16T03:15:35;14.30;;;11.63;;
65328;SDS011;51941;52.210;5.158;2022-08-16T03:18:02;14.35;;;11.65;;
65328;SDS011;51941;52.210;5.158;2022-08-16T03:20:32;14.43;;;11.32;;
65328;SDS011;51941;52.210;5.158;2022-08-16T03:23:03;18.13;;;12.40;;
65328;SDS011;51941;52.210;5.158;2022-08-16T03:25:31;14.93;;;12.27;;
65328;SDS011;51941;52.210;5.158;2022-08-16T03:28:00;14.20;;;11.45;;
65328;SDS011;51941;52.210;5.158;2022-08-16T03:30:28;14.07;;;11.00;;
65328;SDS011;51941;52.210;5.158;2022-08-16T03:33:00;15.05;;;12.02;;
65328;SDS011;51941;52.210;5.158;2022-08-16T03:35:34;15.60;;;12.52;;
65328;SDS011;51941;52.210;5.158;2022-08-16T03:38:16;13.98;;;11.50;;
65328;SDS011;51941;52.210;5.158;2022-08-16T03:40:47;12.65;;;11.35;;
65328;SDS011;51941;52.210;5.158;2022-08-16T03:43:14;17.20;;;11.68;;
65328;SDS011;51941;52.210;5.158;2022-08-16T03:45:41;15.40;;;11.80;;
65328;SDS011;51941;52.210;5.158;2022-08-16T03:48:08;19.15;;;15.30;;
65328;SDS011;51941;52.210;5.158;2022-08-16T03:50:36;17.83;;;13.55;;
65328;SDS011;51941;52.210;5.158;2022-08-16T03:53:04;18.02;;;14.88;;
65328;SDS011;51941;52.210;5.158;2022-08-16T03:55:34;17.95;;;14.25;;
65328;SDS011;51941;52.210;5.158;2022-08-16T03:58:01;18.08;;;14.38;;
65328;SDS011;51941;52.210;5.158;2022-08-16T04:00:29;21.25;;;15.85;;
65328;SDS011;51941;52.210;5.158;2022-08-16T04:03:00;16.88;;;14.10;;
65328;SDS011;51941;52.210;5.158;2022-08-16T04:05:33;21.63;;;15.35;;
65328;SDS011;51941;52.210;5.158;2022-08-16T04:08:01;22.65;;;15.27;;
65328;SDS011;51941;52.210;5.158;2022-08-16T04:10:28;17.40;;;14.23;;
65328;SDS011;51941;52.210;5.158;2022-08-16T04:12:58;18.48;;;15.27;;
65328;SDS011;51941;52.210;5.158;2022-08-16T04:15:25;22.08;;;14.95;;
65328;SDS011;51941;52.210;5.158;2022-08-16T04:18:13;18.30;;;12.93;;
65328;SDS011;51941;52.210;5.158;2022-08-16T04:20:41;20.73;;;14.73;;
65328;SDS011;51941;52.210;5.158;2022-08-16T04:23:09;17.55;;;13.77;;
65328;SDS011;51941;52.210;5.158;2022-08-16T04:25:39;16.92;;;13.48;;
65328;SDS011;51941;52.210;5.158;2022-08-16T04:28:09;17.45;;;13.27;;
65328;SDS011;51941;52.210;5.158;2022-08-16T04:30:36;15.02;;;13.25;;
65328;SDS011;51941;52.210;5.158;2022-08-16T04:33:04;15.88;;;12.00;;
65328;SDS011;51941;52.210;5.158;2022-08-16T04:35:33;19.75;;;13.23;;
65328;SDS011;51941;52.210;5.158;2022-08-16T04:38:01;16.58;;;13.15;;
65328;SDS011;51941;52.210;5.158;2022-08-16T04:40:37;17.63;;;14.18;;
65328;SDS011;51941;52.210;5.158;2022-08-16T04:43:04;20.05;;;15.35;;
65328;SDS011;51941;52.210;5.158;2022-08-16T04:45:33;21.65;;;15.30;;
65328;SDS011;51941;52.210;5.158;2022-08-16T04:48:01;16.10;;;13.68;;
65328;SDS011;51941;52.210;5.158;2022-08-16T04:50:37;14.93;;;12.02;;
65328;SDS011;51941;52.210;5.158;2022-08-16T04:53:13;17.98;;;12.75;;
65328;SDS011;51941;52.210;5.158;2022-08-16T04:55:41;16.73;;;12.57;;
65328;SDS011;51941;52.210;5.158;2022-08-16T04:58:09;16.83;;;12.90;;
65328;SDS011;51941;52.210;5.158;2022-08-16T05:00:37;17.73;;;13.02;;
65328;SDS011;51941;52.210;5.158;2022-08-16T05:03:14;19.10;;;14.48;;
65328;SDS011;51941;52.210;5.158;2022-08-16T05:05:45;17.33;;;13.25;;
65328;SDS011;51941;52.210;5.158;2022-08-16T05:08:19;18.63;;;13.70;;
65328;SDS011;51941;52.210;5.158;2022-08-16T05:10:57;17.02;;;14.15;;
65328;SDS011;51941;52.210;5.158;2022-08-16T05:13:27;17.27;;;13.68;;
65328;SDS011;51941;52.210;5.158;2022-08-16T05:15:56;23.10;;;17.08;;
65328;SDS011;51941;52.210;5.158;2022-08-16T05:20:53;26.48;;;15.60;;
65328;SDS011;51941;52.210;5.158;2022-08-16T05:23:22;20.20;;;15.57;;
65328;SDS011;51941;52.210;5.158;2022-08-16T05:25:50;27.35;;;19.27;;
65328;SDS011;51941;52.210;5.158;2022-08-16T05:28:17;27.13;;;19.17;;
65328;SDS011;51941;52.210;5.158;2022-08-16T05:30:50;27.60;;;18.90;;
65328;SDS011;51941;52.210;5.158;2022-08-16T05:33:23;24.13;;;17.95;;
65328;SDS011;51941;52.210;5.158;2022-08-16T05:35:51;23.58;;;17.92;;
65328;SDS011;51941;52.210;5.158;2022-08-16T05:38:25;26.52;;;19.27;;
65328;SDS011;51941;52.210;5.158;2022-08-16T05:40:56;23.13;;;17.45;;
65328;SDS011;51941;52.210;5.158;2022-08-16T05:43:24;24.10;;;17.67;;
65328;SDS011;51941;52.210;5.158;2022-08-16T05:45:51;26.88;;;19.13;;
65328;SDS011;51941;52.210;5.158;2022-08-16T05:48:19;24.17;;;18.02;;
65328;SDS011;51941;52.210;5.158;2022-08-16T05:50:57;23.15;;;16.83;;
65328;SDS011;51941;52.210;5.158;2022-08-16T05:53:24;23.73;;;16.98;;
65328;SDS011;51941;52.210;5.158;2022-08-16T05:56:03;22.67;;;16.97;;
65328;SDS011;51941;52.210;5.158;2022-08-16T05:58:32;24.13;;;17.20;;
65328;SDS011;51941;52.210;5.158;2022-08-16T06:01:00;20.90;;;16.52;;
65328;SDS011;51941;52.210;5.158;2022-08-16T06:03:27;19.85;;;15.70;;
65328;SDS011;51941;52.210;5.158;2022-08-16T06:05:59;23.98;;;16.08;;
65328;SDS011;51941;52.210;5.158;2022-08-16T06:08:28;33.55;;;16.88;;
65328;SDS011;51941;52.210;5.158;2022-08-16T06:10:55;23.75;;;17.08;;
65328;SDS011;51941;52.210;5.158;2022-08-16T06:13:22;23.55;;;16.08;;
65328;SDS011;51941;52.210;5.158;2022-08-16T06:15:49;21.98;;;17.15;;
65328;SDS011;51941;52.210;5.158;2022-08-16T06:18:18;23.25;;;18.00;;
65328;SDS011;51941;52.210;5.158;2022-08-16T06:20:46;26.10;;;19.20;;
65328;SDS011;51941;52.210;5.158;2022-08-16T06:23:19;24.85;;;18.15;;
65328;SDS011;51941;52.210;5.158;2022-08-16T06:26:00;25.98;;;19.15;;
65328;SDS011;51941;52.210;5.158;2022-08-16T06:28:31;26.80;;;19.55;;
65328;SDS011;51941;52.210;5.158;2022-08-16T06:30:58;26.58;;;18.52;;
65328;SDS011;51941;52.210;5.158;2022-08-16T06:33:26;30.55;;;20.05;;
65328;SDS011;51941;52.210;5.158;2022-08-16T06:35:54;27.45;;;19.50;;
65328;SDS011;51941;52.210;5.158;2022-08-16T06:38:25;28.58;;;20.13;;
65328;SDS011;51941;52.210;5.158;2022-08-16T06:40:55;26.63;;;18.38;;
65328;SDS011;51941;52.210;5.158;2022-08-16T06:43:23;26.48;;;18.45;;
65328;SDS011;51941;52.210;5.158;2022-08-16T06:46:01;26.02;;;20.70;;
65328;SDS011;51941;52.210;5.158;2022-08-16T06:48:30;25.00;;;18.15;;
65328;SDS011;51941;52.210;5.158;2022-08-16T06:50:57;22.55;;;17.88;;
65328;SDS011;51941;52.210;5.158;2022-08-16T06:53:26;21.38;;;17.15;;
65328;SDS011;51941;52.210;5.158;2022-08-16T06:56:03;19.88;;;16.33;;
65328;SDS011;51941;52.210;5.158;2022-08-16T06:58:52;22.40;;;16.75;;
65328;SDS011;51941;52.210;5.158;2022-08-16T07:01:35;20.20;;;15.80;;
65328;SDS011;51941;52.210;5.158;2022-08-16T07:04:05;20.25;;;15.20;;
65328;SDS011;51941;52.210;5.158;2022-08-16T07:06:34;26.38;;;19.65;;
65328;SDS011;51941;52.210;5.158;2022-08-16T07:09:11;16.38;;;14.13;;
65328;SDS011;51941;52.210;5.158;2022-08-16T07:11:42;15.88;;;13.90;;
65328;SDS011;51941;52.210;5.158;2022-08-16T07:14:10;21.02;;;15.60;;
65328;SDS011;51941;52.210;5.158;2022-08-16T07:16:46;19.50;;;14.85;;
65328;SDS011;51941;52.210;5.158;2022-08-16T07:19:13;20.27;;;17.00;;
65328;SDS011;51941;52.210;5.158;2022-08-16T07:21:42;21.30;;;15.77;;
65328;SDS011;51941;52.210;5.158;2022-08-16T07:24:10;25.67;;;19.55;;
65328;SDS011;51941;52.210;5.158;2022-08-16T07:26:39;19.85;;;16.13;;
65328;SDS011;51941;52.210;5.158;2022-08-16T07:29:07;18.33;;;13.95;;
65328;SDS011;51941;52.210;5.158;2022-08-16T07:31:34;17.33;;;14.20;;
65328;SDS011;51941;52.210;5.158;2022-08-16T07:34:01;18.48;;;14.20;;
65328;SDS011;51941;52.210;5.158;2022-08-16T07:36:31;20.58;;;15.90;;
65328;SDS011;51941;52.210;5.158;2022-08-16T07:38:58;16.85;;;14.00;;
65328;SDS011;51941;52.210;5.158;2022-08-16T07:41:31;20.48;;;13.90;;
65328;SDS011;51941;52.210;5.158;2022-08-16T07:44:01;21.45;;;15.15;;
65328;SDS011;51941;52.210;5.158;2022-08-16T07:46:29;18.07;;;14.20;;
65328;SDS011;51941;52.210;5.158;2022-08-16T07:48:58;20.83;;;15.30;;
65328;SDS011;51941;52.210;5.158;2022-08-16T07:51:26;23.30;;;16.42;;
65328;SDS011;51941;52.210;5.158;2022-08-16T07:53:56;25.92;;;17.65;;
65328;SDS011;51941;52.210;5.158;2022-08-16T07:56:22;17.30;;;14.15;;
65328;SDS011;51941;52.210;5.158;2022-08-16T07:58:51;19.27;;;15.35;;
65328;SDS011;51941;52.210;5.158;2022-08-16T08:01:18;21.33;;;16.10;;
65328;SDS011;51941;52.210;5.158;2022-08-16T08:03:50;18.90;;;16.38;;
65328;SDS011;51941;52.210;5.158;2022-08-16T08:06:22;17.38;;;14.52;;
65328;SDS011;51941;52.210;5.158;2022-08-16T08:08:55;14.65;;;12.77;;
65328;SDS011;51941;52.210;5.158;2022-08-16T08:11:22;19.63;;;16.92;;
65328;SDS011;51941;52.210;5.158;2022-08-16T08:13:52;19.30;;;15.27;;
65328;SDS011;51941;52.210;5.158;2022-08-16T08:16:21;20.35;;;14.48;;
65328;SDS011;51941;52.210;5.158;2022-08-16T08:18:49;21.38;;;15.98;;
65328;SDS011;51941;52.210;5.158;2022-08-16T08:21:15;18.45;;;14.40;;
65328;SDS011;51941;52.210;5.158;2022-08-16T08:23:43;19.60;;;15.85;;
65328;SDS011;51941;52.210;5.158;2022-08-16T08:26:11;22.27;;;15.93;;
65328;SDS011;51941;52.210;5.158;2022-08-16T08:28:38;21.13;;;15.13;;
65328;SDS011;51941;52.210;5.158;2022-08-16T08:31:08;24.42;;;18.02;;
65328;SDS011;51941;52.210;5.158;2022-08-16T08:33:37;18.23;;;14.98;;
65328;SDS011;51941;52.210;5.158;2022-08-16T08:36:05;20.23;;;16.90;;
65328;SDS011;51941;52.210;5.158;2022-08-16T08:38:40;24.80;;;18.63;;
65328;SDS011;51941;52.210;5.158;2022-08-16T08:41:08;21.20;;;15.63;;
65328;SDS011;51941;52.210;5.158;2022-08-16T08:43:35;20.85;;;16.13;;
65328;SDS011;51941;52.210;5.158;2022-08-16T08:46:04;19.73;;;16.80;;
65328;SDS011;51941;52.210;5.158;2022-08-16T08:48:32;19.92;;;15.98;;
65328;SDS011;51941;52.210;5.158;2022-08-16T08:51:02;36.88;;;25.35;;
65328;SDS011;51941;52.210;5.158;2022-08-16T08:53:32;19.85;;;16.25;;
65328;SDS011;51941;52.210;5.158;2022-08-16T08:56:00;27.07;;;21.87;;
65328;SDS011;51941;52.210;5.158;2022-08-16T08:58:28;29.48;;;18.10;;
65328;SDS011;51941;52.210;5.158;2022-08-16T09:01:16;24.38;;;20.17;;
65328;SDS011;51941;52.210;5.158;2022-08-16T09:03:49;26.60;;;21.98;;
65328;SDS011;51941;52.210;5.158;2022-08-16T09:06:17;22.05;;;17.40;;
65328;SDS011;51941;52.210;5.158;2022-08-16T09:08:44;23.38;;;17.35;;
65328;SDS011;51941;52.210;5.158;2022-08-16T09:11:15;23.20;;;17.70;;
65328;SDS011;51941;52.210;5.158;2022-08-16T09:13:44;25.33;;;19.40;;
65328;SDS011;51941;52.210;5.158;2022-08-16T09:16:13;20.13;;;16.20;;
65328;SDS011;51941;52.210;5.158;2022-08-16T09:18:41;22.08;;;16.85;;
65328;SDS011;51941;52.210;5.158;2022-08-16T09:21:10;16.35;;;13.80;;
65328;SDS011;51941;52.210;5.158;2022-08-16T09:23:37;25.73;;;17.50;;
65328;SDS011;51941;52.210;5.158;2022-08-16T09:26:09;33.22;;;22.13;;
65328;SDS011;51941;52.210;5.158;2022-08-16T09:28:39;22.63;;;16.17;;
65328;SDS011;51941;52.210;5.158;2022-08-16T09:31:13;21.52;;;16.25;;
65328;SDS011;51941;52.210;5.158;2022-08-16T09:33:41;17.98;;;14.18;;
65328;SDS011;51941;52.210;5.158;2022-08-16T09:36:10;17.15;;;13.75;;
65328;SDS011;51941;52.210;5.158;2022-08-16T09:38:37;22.23;;;16.10;;
65328;SDS011;51941;52.210;5.158;2022-08-16T09:41:05;19.25;;;15.20;;
65328;SDS011;51941;52.210;5.158;2022-08-16T09:43:34;23.60;;;16.70;;
65328;SDS011;51941;52.210;5.158;2022-08-16T09:46:02;26.40;;;19.35;;
65328;SDS011;51941;52.210;5.158;2022-08-16T09:48:31;28.10;;;22.65;;
65328;SDS011;51941;52.210;5.158;2022-08-16T09:50:59;28.30;;;19.95;;
65328;SDS011;51941;52.210;5.158;2022-08-16T09:53:31;24.42;;;16.77;;
65328;SDS011;51941;52.210;5.158;2022-08-16T09:56:14;19.45;;;15.52;;
65328;SDS011;51941;52.210;5.158;2022-08-16T09:58:51;36.15;;;20.88;;
65328;SDS011;51941;52.210;5.158;2022-08-16T10:01:19;33.42;;;22.33;;
65328;SDS011;51941;52.210;5.158;2022-08-16T10:03:46;26.95;;;19.77;;
65328;SDS011;51941;52.210;5.158;2022-08-16T10:06:13;18.02;;;14.07;;
65328;SDS011;51941;52.210;5.158;2022-08-16T10:08:42;25.13;;;17.88;;
65328;SDS011;51941;52.210;5.158;2022-08-16T10:11:09;40.17;;;24.23;;
65328;SDS011;51941;52.210;5.158;2022-08-16T10:13:54;31.77;;;20.95;;
65328;SDS011;51941;52.210;5.158;2022-08-16T10:16:21;20.48;;;16.50;;
65328;SDS011;51941;52.210;5.158;2022-08-16T10:18:48;24.70;;;17.42;;
65328;SDS011;51941;52.210;5.158;2022-08-16T10:21:15;24.08;;;17.63;;
65328;SDS011;51941;52.210;5.158;2022-08-16T10:23:43;22.02;;;16.85;;
65328;SDS011;51941;52.210;5.158;2022-08-16T10:26:12;31.88;;;24.33;;
65328;SDS011;51941;52.210;5.158;2022-08-16T10:28:39;28.00;;;21.83;;
65328;SDS011;51941;52.210;5.158;2022-08-16T10:31:07;28.02;;;21.58;;
65328;SDS011;51941;52.210;5.158;2022-08-16T10:33:36;34.42;;;25.65;;
65328;SDS011;51941;52.210;5.158;2022-08-16T10:36:03;27.73;;;22.92;;
65328;SDS011;51941;52.210;5.158;2022-08-16T10:38:33;30.65;;;25.00;;
65328;SDS011;51941;52.210;5.158;2022-08-16T10:41:03;36.50;;;26.80;;
65328;SDS011;51941;52.210;5.158;2022-08-16T10:43:31;21.85;;;17.63;;
65328;SDS011;51941;52.210;5.158;2022-08-16T10:45:58;25.58;;;20.67;;
65328;SDS011;51941;52.210;5.158;2022-08-16T10:48:27;26.90;;;20.58;;
65328;SDS011;51941;52.210;5.158;2022-08-16T10:50:55;33.45;;;22.63;;
65328;SDS011;51941;52.210;5.158;2022-08-16T10:53:23;38.35;;;26.40;;
65328;SDS011;51941;52.210;5.158;2022-08-16T10:55:50;27.13;;;19.42;;
65328;SDS011;51941;52.210;5.158;2022-08-16T10:58:20;25.35;;;19.02;;
65328;SDS011;51941;52.210;5.158;2022-08-16T11:00:48;22.45;;;17.55;;
65328;SDS011;51941;52.210;5.158;2022-08-16T11:03:15;20.13;;;16.08;;
65328;SDS011;51941;52.210;5.158;2022-08-16T11:05:43;23.98;;;18.10;;
65328;SDS011;51941;52.210;5.158;2022-08-16T11:08:10;21.75;;;17.38;;
65328;SDS011;51941;52.210;5.158;2022-08-16T11:10:39;30.73;;;22.13;;
65328;SDS011;51941;52.210;5.158;2022-08-16T11:13:08;21.52;;;17.35;;
65328;SDS011;51941;52.210;5.158;2022-08-16T11:15:40;23.23;;;17.15;;
65328;SDS011;51941;52.210;5.158;2022-08-16T11:18:09;26.45;;;18.80;;
65328;SDS011;51941;52.210;5.158;2022-08-16T11:20:37;24.57;;;18.43;;
65328;SDS011;51941;52.210;5.158;2022-08-16T11:23:04;19.95;;;16.15;;
65328;SDS011;51941;52.210;5.158;2022-08-16T11:25:31;22.80;;;17.83;;
65328;SDS011;51941;52.210;5.158;2022-08-16T11:28:00;29.42;;;19.10;;
65328;SDS011;51941;52.210;5.158;2022-08-16T11:30:28;38.08;;;23.00;;
65328;SDS011;51941;52.210;5.158;2022-08-16T11:33:01;29.52;;;20.27;;
65328;SDS011;51941;52.210;5.158;2022-08-16T11:35:29;25.55;;;19.33;;
65328;SDS011;51941;52.210;5.158;2022-08-16T11:37:58;23.35;;;18.98;;
65328;SDS011;51941;52.210;5.158;2022-08-16T11:40:27;33.55;;;22.17;;
65328;SDS011;51941;52.210;5.158;2022-08-16T11:42:59;29.58;;;20.95;;
65328;SDS011;51941;52.210;5.158;2022-08-16T11:45:26;35.78;;;25.27;;
65328;SDS011;51941;52.210;5.158;2022-08-16T11:47:53;34.28;;;22.10;;
65328;SDS011;51941;52.210;5.158;2022-08-16T11:50:21;21.90;;;16.05;;
65328;SDS011;51941;52.210;5.158;2022-08-16T11:52:48;36.53;;;24.75;;
65328;SDS011;51941;52.210;5.158;2022-08-16T11:55:16;21.83;;;18.55;;
65328;SDS011;51941;52.210;5.158;2022-08-16T11:57:46;21.40;;;16.77;;
65328;SDS011;51941;52.210;5.158;2022-08-16T12:00:13;24.42;;;15.23;;
65328;SDS011;51941;52.210;5.158;2022-08-16T12:02:41;27.42;;;20.25;;
65328;SDS011;51941;52.210;5.158;2022-08-16T12:05:10;30.70;;;23.73;;
65328;SDS011;51941;52.210;5.158;2022-08-16T12:07:41;29.20;;;23.20;;
65328;SDS011;51941;52.210;5.158;2022-08-16T12:10:10;28.08;;;22.88;;
65328;SDS011;51941;52.210;5.158;2022-08-16T12:12:41;39.55;;;26.45;;
65328;SDS011;51941;52.210;5.158;2022-08-16T12:15:10;30.10;;;20.87;;
65328;SDS011;51941;52.210;5.158;2022-08-16T12:17:37;20.58;;;18.15;;
65328;SDS011;51941;52.210;5.158;2022-08-16T12:20:06;34.17;;;25.25;;
65328;SDS011;51941;52.210;5.158;2022-08-16T12:22:35;26.38;;;20.08;;
65328;SDS011;51941;52.210;5.158;2022-08-16T12:25:05;26.85;;;19.40;;
65328;SDS011;51941;52.210;5.158;2022-08-16T12:27:36;23.92;;;17.90;;
65328;SDS011;51941;52.210;5.158;2022-08-16T12:30:05;21.48;;;16.85;;
65328;SDS011;51941;52.210;5.158;2022-08-16T12:32:34;22.52;;;16.92;;
65328;SDS011;51941;52.210;5.158;2022-08-16T12:35:04;20.30;;;16.40;;
65328;SDS011;51941;52.210;5.158;2022-08-16T12:37:33;22.60;;;16.45;;
65328;SDS011;51941;52.210;5.158;2022-08-16T12:40:00;27.27;;;19.30;;
65328;SDS011;51941;52.210;5.158;2022-08-16T12:42:29;22.38;;;19.10;;
65328;SDS011;51941;52.210;5.158;2022-08-16T12:44:58;28.10;;;21.42;;
65328;SDS011;51941;52.210;5.158;2022-08-16T12:47:25;26.92;;;21.08;;
65328;SDS011;51941;52.210;5.158;2022-08-16T12:50:09;25.90;;;18.48;;
65328;SDS011;51941;52.210;5.158;2022-08-16T12:52:36;25.27;;;16.17;;
65328;SDS011;51941;52.210;5.158;2022-08-16T12:55:04;26.52;;;17.70;;
65328;SDS011;51941;52.210;5.158;2022-08-16T12:57:32;24.60;;;17.20;;
65328;SDS011;51941;52.210;5.158;2022-08-16T13:00:00;26.23;;;18.30;;
65328;SDS011;51941;52.210;5.158;2022-08-16T13:02:27;20.08;;;16.65;;
65328;SDS011;51941;52.210;5.158;2022-08-16T13:04:54;23.55;;;19.23;;
65328;SDS011;51941;52.210;5.158;2022-08-16T13:07:21;18.65;;;14.80;;
65328;SDS011;51941;52.210;5.158;2022-08-16T13:09:58;29.33;;;18.90;;
65328;SDS011;51941;52.210;5.158;2022-08-16T13:20:47;22.02;;;16.25;;
65328;SDS011;51941;52.210;5.158;2022-08-16T13:23:15;19.70;;;14.75;;
65328;SDS011;51941;52.210;5.158;2022-08-16T13:25:43;14.65;;;11.70;;
65328;SDS011;51941;52.210;5.158;2022-08-16T13:28:18;19.10;;;14.65;;
65328;SDS011;51941;52.210;5.158;2022-08-16T13:30:46;28.88;;;18.83;;
65328;SDS011;51941;52.210;5.158;2022-08-16T13:33:18;27.15;;;16.65;;
65328;SDS011;51941;52.210;5.158;2022-08-16T13:35:50;20.60;;;15.48;;
65328;SDS011;51941;52.210;5.158;2022-08-16T13:38:47;35.30;;;23.02;;
65328;SDS011;51941;52.210;5.158;2022-08-16T13:41:18;27.08;;;20.10;;
65328;SDS011;51941;52.210;5.158;2022-08-16T13:43:51;28.85;;;20.70;;
65328;SDS011;51941;52.210;5.158;2022-08-16T13:46:18;20.73;;;17.52;;
65328;SDS011;51941;52.210;5.158;2022-08-16T13:48:45;40.70;;;30.52;;
65328;SDS011;51941;52.210;5.158;2022-08-16T13:51:25;22.42;;;18.92;;
65328;SDS011;51941;52.210;5.158;2022-08-16T13:54:17;25.92;;;19.42;;
65328;SDS011;51941;52.210;5.158;2022-08-16T13:56:44;27.10;;;18.48;;
65328;SDS011;51941;52.210;5.158;2022-08-16T14:27:20;20.38;;;15.18;;
65328;SDS011;51941;52.210;5.158;2022-08-16T14:29:50;22.33;;;15.13;;
65328;SDS011;51941;52.210;5.158;2022-08-16T14:32:21;16.88;;;12.65;;
65328;SDS011;51941;52.210;5.158;2022-08-16T14:34:55;15.15;;;12.50;;
65328;SDS011;51941;52.210;5.158;2022-08-16T14:37:26;14.63;;;11.95;;
65328;SDS011;51941;52.210;5.158;2022-08-16T14:39:53;17.67;;;10.30;;
65328;SDS011;51941;52.210;5.158;2022-08-16T14:42:22;14.68;;;11.55;;
65328;SDS011;51941;52.210;5.158;2022-08-16T14:44:50;20.90;;;13.63;;
65328;SDS011;51941;52.210;5.158;2022-08-16T14:47:17;27.00;;;18.42;;
65328;SDS011;51941;52.210;5.158;2022-08-16T14:49:44;29.75;;;21.08;;
65328;SDS011;51941;52.210;5.158;2022-08-16T14:52:13;22.52;;;15.05;;
65328;SDS011;51941;52.210;5.158;2022-08-16T14:54:41;29.77;;;16.48;;
65328;SDS011;51941;52.210;5.158;2022-08-16T14:57:09;30.42;;;22.73;;
65328;SDS011;51941;52.210;5.158;2022-08-16T14:59:39;22.40;;;15.23;;
65328;SDS011;51941;52.210;5.158;2022-08-16T15:02:10;19.00;;;14.98;;
65328;SDS011;51941;52.210;5.158;2022-08-16T15:04:41;22.00;;;14.90;;
65328;SDS011;51941;52.210;5.158;2022-08-16T15:07:09;21.42;;;14.68;;
65328;SDS011;51941;52.210;5.158;2022-08-16T15:09:38;22.65;;;15.60;;
65328;SDS011;51941;52.210;5.158;2022-08-16T15:12:11;25.83;;;14.50;;
65328;SDS011;51941;52.210;5.158;2022-08-16T15:15:01;20.33;;;14.23;;
65328;SDS011;51941;52.210;5.158;2022-08-16T15:17:40;28.05;;;19.23;;
65328;SDS011;51941;52.210;5.158;2022-08-16T15:20:10;25.05;;;16.75;;
65328;SDS011;51941;52.210;5.158;2022-08-16T15:22:39;22.23;;;17.27;;